Sacramento, California
Traffic Map
Current Weather Conditions
Sacramento, California
Clear
Clear
65°
Feels Like: 65°
Wind Chill: 65° Ceiling: Unl
Heat Index: 65° Visibility: 10mi
Dew Point: 55° Wind: 10mph
Humidity: 70% Direction: 200° (SSW)
Pressure: 29.89in Gusts: 0mph
Raw Report DataKSAC 160553Z AUTO 20009KT 10SM CLR 18/13 A2989 RMK AO2 SLP121 T01830128 10289 20183 51012
Traffic Incident Summary
Active as of:
Severity:
Category:
InformationThere was an issue retrieving the traffic information for this location. Please try a different location or try again shortly.
Advertisements